createdAt,value
2023-05-11T00:01:32.895Z,6.78
2023-05-11T00:04:33.983Z,6.82
2023-05-11T00:07:36.946Z,6.87
2023-05-11T00:10:37.883Z,6.89
2023-05-11T00:13:38.885Z,6.92
2023-05-11T00:16:39.901Z,6.94
2023-05-11T00:19:40.926Z,6.96
2023-05-11T00:22:44.068Z,6.97
2023-05-11T00:25:45.982Z,7.00
2023-05-11T00:28:46.915Z,7.03
2023-05-11T00:31:47.955Z,7.04
2023-05-11T00:34:48.986Z,7.06
2023-05-11T00:37:43.011Z,7.05
2023-05-11T00:40:46.977Z,7.05
2023-05-11T00:43:48.162Z,7.05
2023-05-11T00:46:48.974Z,7.06
2023-05-11T00:49:49.945Z,7.06
2023-05-11T00:52:50.945Z,7.07
2023-05-11T00:55:51.976Z,7.08
2023-05-11T00:58:52.983Z,7.08
2023-05-11T01:01:54.085Z,7.08
2023-05-11T01:04:54.949Z,7.08
2023-05-11T01:08:13.007Z,7.09
2023-05-11T01:11:17.055Z,7.10
2023-05-11T01:14:28.188Z,7.11
2023-05-11T01:17:32.040Z,7.09
2023-05-11T01:20:35.020Z,7.06
2023-05-11T01:23:46.088Z,7.04
2023-05-11T01:27:05.060Z,7.01
2023-05-11T01:30:12.038Z,6.97
2023-05-11T01:33:13.076Z,6.93
2023-05-11T01:36:15.070Z,6.88
2023-05-11T01:39:17.062Z,6.84
2023-05-11T01:42:22.032Z,6.77
2023-05-11T01:45:23.070Z,6.74
2023-05-11T01:48:25.017Z,6.68
2023-05-11T01:51:26.113Z,6.63
2023-05-11T01:54:27.051Z,6.59
2023-05-11T01:57:28.160Z,6.55
2023-05-11T02:00:29.103Z,6.50
2023-05-11T02:03:30.125Z,6.43
2023-05-11T02:06:31.128Z,6.37
2023-05-11T02:09:25.153Z,6.31
2023-05-11T02:12:26.115Z,6.26
2023-05-11T02:15:27.145Z,6.21
2023-05-11T02:18:29.262Z,6.18
2023-05-11T02:21:30.099Z,6.15
2023-05-11T02:24:31.112Z,6.13
2023-05-11T02:27:32.094Z,6.11
2023-05-11T02:30:33.117Z,6.11
2023-05-11T02:33:34.102Z,6.13
2023-05-11T02:36:36.167Z,6.18
2023-05-11T02:39:30.230Z,6.24
2023-05-11T02:42:16.260Z,6.29
2023-05-11T02:45:08.177Z,6.34
2023-05-11T02:47:56.217Z,6.40
2023-05-11T02:50:58.192Z,6.46
2023-05-11T02:54:02.291Z,6.54
2023-05-11T02:57:03.151Z,6.62
2023-05-11T03:00:04.279Z,6.70
2023-05-11T03:03:06.303Z,6.77
2023-05-11T03:06:07.240Z,6.81
2023-05-11T03:09:10.162Z,6.86
2023-05-11T03:12:13.181Z,6.90
2023-05-11T03:15:15.233Z,6.91
2023-05-11T03:18:16.163Z,6.92
2023-05-11T03:21:17.200Z,6.94
2023-05-11T03:24:19.255Z,6.96
2023-05-11T03:27:20.168Z,6.95
2023-05-11T03:30:21.213Z,6.97
2023-05-11T03:33:22.271Z,6.99
2023-05-11T03:36:23.222Z,7.00
2023-05-11T03:39:25.205Z,7.01
2023-05-11T03:42:26.271Z,7.03
2023-05-11T03:45:27.267Z,7.04
2023-05-11T03:48:30.265Z,7.05
2023-05-11T03:51:31.212Z,7.07
2023-05-11T03:54:32.262Z,7.10
2023-05-11T03:57:33.409Z,7.14
2023-05-11T04:00:34.335Z,7.18
2023-05-11T04:03:35.601Z,7.25
2023-05-11T04:06:36.279Z,7.35
2023-05-11T04:09:43.307Z,7.48
2023-05-11T04:12:45.276Z,7.60
2023-05-11T04:15:46.326Z,7.71
2023-05-11T04:18:47.320Z,7.83
2023-05-11T04:21:48.322Z,7.97
2023-05-11T04:24:49.475Z,8.12
2023-05-11T04:27:50.278Z,8.28
2023-05-11T04:30:52.410Z,8.44
2023-05-11T04:33:46.383Z,8.59
2023-05-11T04:36:47.359Z,8.72
2023-05-11T04:39:48.388Z,8.86
2023-05-11T04:42:49.392Z,9.01
2023-05-11T04:45:50.358Z,9.17
2023-05-11T04:48:53.352Z,9.29
2023-05-11T04:51:55.078Z,9.41
2023-05-11T04:54:55.366Z,9.59
2023-05-11T04:57:56.383Z,9.79
2023-05-11T05:00:57.380Z,9.97
2023-05-11T05:03:58.404Z,10.12
2023-05-11T05:06:59.592Z,10.25
2023-05-11T05:10:04.088Z,10.32
2023-05-11T05:13:04.500Z,10.41
2023-05-11T05:16:05.444Z,10.47
2023-05-11T05:19:06.515Z,10.55
2023-05-11T05:22:07.525Z,10.66
2023-05-11T05:25:09.172Z,10.80
2023-05-11T05:28:10.459Z,10.94
2023-05-11T05:31:13.719Z,11.17
2023-05-11T05:34:16.817Z,11.47
2023-05-11T05:37:17.611Z,11.78
2023-05-11T05:40:21.495Z,12.01
2023-05-11T05:43:23.742Z,12.16
2023-05-11T05:46:24.511Z,12.28
2023-05-11T05:49:25.506Z,12.50
2023-05-11T05:52:26.466Z,12.97
2023-05-11T05:55:27.463Z,13.56
2023-05-11T05:58:30.632Z,13.87
2023-05-11T06:01:33.494Z,14.10
2023-05-11T06:04:37.423Z,14.36
2023-05-11T06:07:38.765Z,14.76
2023-05-11T06:10:41.683Z,15.47
2023-05-11T06:13:45.641Z,16.19
2023-05-11T06:16:49.614Z,16.87
2023-05-11T06:19:50.688Z,17.42
2023-05-11T06:22:54.963Z,17.85
2023-05-11T06:25:59.172Z,18.16
2023-05-11T06:29:03.620Z,18.48
2023-05-11T06:32:05.936Z,18.46
2023-05-11T06:35:00.065Z,18.68
2023-05-11T06:37:40.909Z,19.01
2023-05-11T06:40:31.802Z,19.27
2023-05-11T06:43:11.973Z,19.31
2023-05-11T06:46:03.463Z,19.49
2023-05-11T06:49:04.591Z,19.56
2023-05-11T06:52:06.033Z,19.89
2023-05-11T06:55:07.747Z,20.01
2023-05-11T06:58:08.982Z,20.02
2023-05-11T07:01:12.732Z,20.32
2023-05-11T07:04:14.107Z,20.56
2023-05-11T07:07:18.745Z,20.74
2023-05-11T07:10:22.010Z,20.87
2023-05-11T07:13:22.661Z,21.18
2023-05-11T07:16:23.637Z,21.58
2023-05-11T07:19:24.674Z,21.65
2023-05-11T07:22:26.178Z,21.53
2023-05-11T07:25:26.829Z,21.49
2023-05-11T07:28:27.661Z,21.84
2023-05-11T07:31:29.740Z,22.27
2023-05-11T07:34:31.689Z,21.95
2023-05-11T07:37:32.792Z,21.35
2023-05-11T07:40:34.397Z,21.08
2023-05-11T07:43:39.935Z,21.31
2023-05-11T07:46:41.256Z,21.58
2023-05-11T07:49:43.950Z,21.38
2023-05-11T07:52:44.721Z,20.47
2023-05-11T07:55:46.155Z,19.56
2023-05-11T07:58:47.807Z,18.90
2023-05-11T08:01:48.803Z,18.47
2023-05-11T08:04:49.802Z,18.21
2023-05-11T08:07:51.195Z,18.04
2023-05-11T08:10:52.733Z,17.94
2023-05-11T08:13:53.878Z,17.91
2023-05-11T08:16:54.982Z,17.85
2023-05-11T08:19:56.771Z,18.26
2023-05-11T08:22:59.801Z,19.22
2023-05-11T08:26:06.578Z,19.98
2023-05-11T08:29:07.845Z,20.02
2023-05-11T08:32:08.803Z,19.56
2023-05-11T08:35:10.790Z,18.93
2023-05-11T08:38:12.169Z,18.42
2023-05-11T08:41:13.898Z,18.10
2023-05-11T08:44:14.964Z,17.78
2023-05-11T08:47:23.187Z,17.51
2023-05-11T08:50:25.846Z,17.35
2023-05-11T08:53:26.813Z,17.13
2023-05-11T08:56:28.812Z,17.06
2023-05-11T08:59:30.009Z,17.09
2023-05-11T09:02:31.849Z,17.11
2023-05-11T09:05:32.997Z,17.03
2023-05-11T09:08:33.844Z,16.99
2023-05-11T09:11:28.214Z,17.18
2023-05-11T09:14:08.556Z,17.38
2023-05-11T09:16:57.002Z,17.61
2023-05-11T09:19:37.592Z,18.09
2023-05-11T09:22:24.903Z,18.87
2023-05-11T09:25:11.862Z,19.78
2023-05-11T09:28:16.076Z,20.50
2023-05-11T09:31:17.912Z,20.63
2023-05-11T09:34:18.865Z,20.69
2023-05-11T09:37:21.954Z,21.20
2023-05-11T09:40:27.410Z,21.70
2023-05-11T09:43:30.978Z,22.19
2023-05-11T09:46:28.143Z,22.81
2023-05-11T09:49:30.929Z,23.24
2023-05-11T09:52:31.983Z,23.70
2023-05-11T09:55:35.081Z,24.08
2023-05-11T09:58:36.108Z,24.12
2023-05-11T10:01:47.150Z,23.87
2023-05-11T10:04:48.462Z,23.73
2023-05-11T10:07:50.763Z,23.66
2023-05-11T10:10:52.946Z,23.91
2023-05-11T10:13:58.378Z,24.02
2023-05-11T10:16:58.957Z,23.96
2023-05-11T10:20:04.138Z,23.67
2023-05-11T10:23:07.956Z,23.28
2023-05-11T10:26:10.016Z,23.02
2023-05-11T10:29:10.975Z,22.51
2023-05-11T10:32:12.006Z,22.04
2023-05-11T10:35:13.021Z,21.97
2023-05-11T10:38:14.219Z,22.14
2023-05-11T10:41:30.091Z,22.47
2023-05-11T10:44:38.813Z,22.85
2023-05-11T10:47:46.103Z,23.36
2023-05-11T10:50:48.008Z,23.70
2023-05-11T10:53:55.048Z,24.03
2023-05-11T10:57:08.142Z,23.78
2023-05-11T11:00:42.236Z,23.27
2023-05-11T11:03:43.336Z,22.92
2023-05-11T11:06:45.616Z,22.75
2023-05-11T11:10:06.035Z,22.52
2023-05-11T11:13:28.099Z,22.10
2023-05-11T11:16:32.265Z,21.99
2023-05-11T11:19:45.106Z,22.16
2023-05-11T11:22:49.106Z,22.22
2023-05-11T11:26:04.566Z,21.92
2023-05-11T11:29:08.336Z,21.34
2023-05-11T11:32:09.169Z,20.70
2023-05-11T11:35:10.318Z,20.16
2023-05-11T11:38:15.151Z,19.72
2023-05-11T11:41:17.366Z,19.77
2023-05-11T11:44:18.549Z,20.40
2023-05-11T11:47:28.149Z,21.11
2023-05-11T11:50:22.146Z,21.53
2023-05-11T11:53:29.253Z,22.10
2023-05-11T11:56:30.164Z,22.66
2023-05-11T11:59:31.195Z,23.05
2023-05-11T12:02:34.031Z,23.37
2023-05-11T12:05:37.169Z,23.66
2023-05-11T12:08:39.205Z,23.58
2023-05-11T12:11:40.366Z,23.62
2023-05-11T12:14:41.178Z,23.78
2023-05-11T12:17:42.157Z,23.81
2023-05-11T12:20:43.277Z,23.46
2023-05-11T12:23:44.192Z,23.16
2023-05-11T12:26:45.189Z,22.90
2023-05-11T12:29:47.189Z,23.19
2023-05-11T12:32:48.252Z,23.34
2023-05-11T12:35:49.181Z,22.60
2023-05-11T12:38:57.228Z,21.75
2023-05-11T12:41:58.243Z,21.15
2023-05-11T12:44:59.298Z,20.65
2023-05-11T12:48:03.236Z,20.21
2023-05-11T12:51:05.217Z,20.05
2023-05-11T12:54:06.225Z,19.78
2023-05-11T12:57:07.262Z,19.68
2023-05-11T13:00:23.625Z,20.09
2023-05-11T13:03:24.431Z,20.38
2023-05-11T13:06:25.273Z,20.42
2023-05-11T13:09:26.299Z,20.58
2023-05-11T13:12:32.399Z,20.83
2023-05-11T13:15:35.476Z,21.09
2023-05-11T13:18:36.360Z,21.15
2023-05-11T13:21:37.267Z,21.05
2023-05-11T13:24:38.312Z,20.77
2023-05-11T13:27:39.327Z,20.45
2023-05-11T13:30:40.326Z,20.26
2023-05-11T13:33:41.283Z,20.27
2023-05-11T13:36:42.337Z,20.25
2023-05-11T13:39:43.340Z,20.34
2023-05-11T13:42:44.350Z,20.39
2023-05-11T13:45:47.365Z,20.35
2023-05-11T13:48:48.323Z,20.25
2023-05-11T13:51:49.359Z,20.43
2023-05-11T13:54:50.360Z,20.72
2023-05-11T13:57:51.613Z,20.73
2023-05-11T14:01:07.225Z,20.75
2023-05-11T14:04:09.384Z,20.67
2023-05-11T14:07:10.375Z,20.73
2023-05-11T14:10:11.383Z,20.69
2023-05-11T14:13:16.468Z,20.51
2023-05-11T14:16:17.496Z,20.45
2023-05-11T14:19:18.766Z,20.39
2023-05-11T14:22:19.361Z,20.25
2023-05-11T14:25:20.736Z,19.96
2023-05-11T14:31:50.375Z,19.40
2023-05-11T14:34:51.255Z,19.33
2023-05-11T14:37:52.957Z,19.35
2023-05-11T14:40:54.132Z,19.29
2023-05-11T14:44:06.407Z,19.15
2023-05-11T14:47:07.159Z,19.09
2023-05-11T14:50:09.146Z,19.00
2023-05-11T14:53:10.177Z,18.88
2023-05-11T14:56:11.108Z,18.78
2023-05-11T14:59:12.198Z,18.68
2023-05-11T15:02:13.217Z,18.62
2023-05-11T15:05:14.203Z,18.50
2023-05-11T15:08:28.460Z,18.25
2023-05-11T15:11:31.145Z,18.08
2023-05-11T15:14:32.123Z,17.96
2023-05-11T15:17:33.293Z,17.79
2023-05-11T15:20:27.276Z,17.59
2023-05-11T15:23:15.271Z,17.44
2023-05-11T15:26:16.403Z,17.30
2023-05-11T15:29:17.192Z,17.25
2023-05-11T15:32:18.219Z,17.25
2023-05-11T15:35:19.449Z,17.29
2023-05-11T15:38:20.222Z,17.34
2023-05-11T15:41:21.207Z,17.37
2023-05-11T15:44:22.297Z,17.37
2023-05-11T15:47:26.448Z,17.38
2023-05-11T15:50:29.351Z,17.37
2023-05-11T15:53:31.448Z,17.37
2023-05-11T15:56:35.373Z,17.36
2023-05-11T15:59:36.564Z,17.30
2023-05-11T16:02:37.386Z,17.22
2023-05-11T16:05:38.460Z,17.17
2023-05-11T16:08:40.397Z,17.11
2023-05-11T16:11:34.371Z,17.06
2023-05-11T16:14:35.247Z,17.01
2023-05-11T16:17:36.557Z,16.96
2023-05-11T16:20:37.385Z,16.91
2023-05-11T16:23:38.344Z,16.79
2023-05-11T16:26:39.345Z,16.60
2023-05-11T16:29:40.400Z,16.40
2023-05-11T16:32:41.384Z,16.22
2023-05-11T16:35:42.310Z,16.09
2023-05-11T16:38:45.305Z,16.02
2023-05-11T16:41:46.381Z,15.97
2023-05-11T16:44:47.306Z,15.89
2023-05-11T16:47:48.592Z,15.82
2023-05-11T16:50:49.385Z,15.74
2023-05-11T16:53:53.477Z,15.64
2023-05-11T16:56:54.312Z,15.56
2023-05-11T16:59:55.334Z,15.45
2023-05-11T17:02:56.704Z,15.31
2023-05-11T17:05:57.366Z,15.17
2023-05-11T17:08:58.436Z,15.05
2023-05-11T17:11:59.427Z,14.95
2023-05-11T17:15:00.412Z,14.84
2023-05-11T17:18:01.515Z,14.73
2023-05-11T17:21:08.693Z,14.62
2023-05-11T17:24:09.457Z,14.48
2023-05-11T17:27:10.451Z,14.35
2023-05-11T17:30:11.506Z,14.21
2023-05-11T17:33:14.798Z,14.06
2023-05-11T17:36:18.458Z,13.93
2023-05-11T17:39:26.883Z,13.78
2023-05-11T17:42:27.564Z,13.66
2023-05-11T17:45:21.771Z,13.53
2023-05-11T17:48:22.452Z,13.41
2023-05-11T17:51:23.500Z,13.30
2023-05-11T17:54:24.442Z,13.19
2023-05-11T17:57:26.534Z,13.10
2023-05-11T18:00:27.464Z,13.00
2023-05-11T18:03:21.537Z,12.90
2023-05-11T18:06:08.656Z,12.82
2023-05-11T18:09:11.454Z,12.75
2023-05-11T18:12:12.498Z,12.69
2023-05-11T18:15:13.517Z,12.64
2023-05-11T18:18:14.566Z,12.59
2023-05-11T18:21:18.487Z,12.53
2023-05-11T18:24:21.538Z,12.48
2023-05-11T18:27:22.565Z,12.43
2023-05-11T18:30:23.636Z,12.39
2023-05-11T18:33:24.557Z,12.36
2023-05-11T18:36:25.533Z,12.32
2023-05-11T18:39:26.521Z,12.28
2023-05-11T18:42:27.597Z,12.25
2023-05-11T18:45:28.577Z,12.22
2023-05-11T18:48:29.602Z,12.21
2023-05-11T18:51:30.545Z,12.21
2023-05-11T18:54:31.605Z,12.22
2023-05-11T18:57:32.829Z,12.22
2023-05-11T19:00:34.666Z,12.23
2023-05-11T19:03:37.593Z,12.22
2023-05-11T19:06:38.593Z,12.20
2023-05-11T19:09:49.477Z,12.20
2023-05-11T19:12:56.571Z,12.18
2023-05-11T19:16:17.311Z,12.13
2023-05-11T19:19:27.356Z,12.09
2023-05-11T19:22:46.100Z,12.04
2023-05-11T19:25:56.714Z,12.04
2023-05-11T19:29:09.305Z,12.03
2023-05-11T19:32:26.817Z,12.07
2023-05-11T19:35:39.912Z,12.10
2023-05-11T19:38:44.795Z,12.11
2023-05-11T19:41:52.359Z,12.10
2023-05-11T19:45:04.109Z,12.09
2023-05-11T19:48:06.693Z,12.12
2023-05-11T19:51:09.845Z,12.17
2023-05-11T19:54:10.575Z,12.18
2023-05-11T19:57:12.636Z,12.14
2023-05-11T20:00:08.814Z,12.07
2023-05-11T20:02:48.773Z,12.00
2023-05-11T20:05:35.674Z,11.93
2023-05-11T20:08:16.424Z,11.89
2023-05-11T20:11:04.750Z,11.89
2023-05-11T20:13:54.821Z,11.93
2023-05-11T20:16:55.657Z,12.03
2023-05-11T20:19:56.715Z,12.11
2023-05-11T20:22:57.725Z,12.15
2023-05-11T20:25:58.718Z,12.22
2023-05-11T20:28:59.673Z,12.28
2023-05-11T20:32:00.955Z,12.26
2023-05-11T20:35:01.738Z,12.25
2023-05-11T20:38:02.905Z,12.28
2023-05-11T20:41:04.927Z,12.28
2023-05-11T20:44:05.898Z,12.26
2023-05-11T20:47:07.032Z,12.17
2023-05-11T20:50:07.707Z,12.09
2023-05-11T20:53:08.792Z,12.02
2023-05-11T20:56:09.884Z,11.98
2023-05-11T21:00:03.577Z,11.94
2023-05-11T21:02:31.964Z,11.85
2023-05-11T21:05:32.899Z,11.78
2023-05-11T21:08:33.773Z,11.71
2023-05-11T21:11:35.968Z,11.65
2023-05-11T21:14:36.832Z,11.69
2023-05-11T21:17:37.798Z,11.71
2023-05-11T21:20:40.117Z,11.74
2023-05-11T21:23:40.797Z,11.88
2023-05-11T21:26:42.071Z,12.01
2023-05-11T21:29:42.795Z,12.12
2023-05-11T21:32:43.895Z,12.15
2023-05-11T21:35:44.843Z,12.12
2023-05-11T21:38:45.927Z,12.07
2023-05-11T21:41:46.782Z,12.02
2023-05-11T21:44:47.824Z,11.97
2023-05-11T21:47:48.874Z,11.93
2023-05-11T21:50:49.840Z,11.90
2023-05-11T21:53:50.904Z,11.86
2023-05-11T21:56:52.042Z,11.84
2023-05-11T21:59:52.816Z,11.82
2023-05-11T22:02:53.932Z,11.80
2023-05-11T22:05:54.865Z,11.78
2023-05-11T22:08:55.869Z,11.75
2023-05-11T22:11:56.874Z,11.72
2023-05-11T22:14:57.863Z,11.70
2023-05-11T22:17:58.910Z,11.68
2023-05-11T22:20:59.881Z,11.66
2023-05-11T22:24:00.880Z,11.65
2023-05-11T22:27:02.230Z,11.62
2023-05-11T22:30:02.886Z,11.61
2023-05-11T22:33:04.068Z,11.60
2023-05-11T22:36:04.967Z,11.58
2023-05-11T22:39:05.895Z,11.52
2023-05-11T22:42:06.943Z,11.47
2023-05-11T22:45:07.887Z,11.41
2023-05-11T22:48:09.968Z,11.35
2023-05-11T22:51:13.915Z,11.27
2023-05-11T22:54:15.447Z,11.20
2023-05-11T22:57:15.925Z,11.15
2023-05-11T23:00:18.186Z,11.10
2023-05-11T23:03:19.013Z,11.08
2023-05-11T23:06:22.434Z,11.02
2023-05-11T23:09:23.959Z,10.93
2023-05-11T23:12:24.904Z,10.84
2023-05-11T23:15:25.967Z,10.77
2023-05-11T23:18:28.304Z,10.73
2023-05-11T23:21:29.005Z,10.71
2023-05-11T23:24:30.010Z,10.70
2023-05-11T23:27:30.949Z,10.66
2023-05-11T23:30:26.071Z,10.60
2023-05-11T23:33:06.130Z,10.56
2023-05-11T23:36:03.988Z,10.53
2023-05-11T23:39:05.028Z,10.51
2023-05-11T23:42:07.013Z,10.49
2023-05-11T23:45:11.097Z,10.47
2023-05-11T23:48:12.082Z,10.44
2023-05-11T23:51:13.061Z,10.43
2023-05-11T23:54:14.038Z,10.41
2023-05-11T23:57:15.082Z,10.37
